sensor_id;sensor_type;location;lat;lon;timestamp;P1;durP1;ratioP1;P2;durP2;ratioP2
26774;SDS011;14362;51.902;7.626;2022-08-25T00:03:56;4.10;;;2.00;;
26774;SDS011;14362;51.902;7.626;2022-08-25T00:07:58;4.13;;;2.40;;
26774;SDS011;14362;51.902;7.626;2022-08-25T00:12:02;3.60;;;2.05;;
26774;SDS011;14362;51.902;7.626;2022-08-25T00:16:05;2.90;;;2.00;;
26774;SDS011;14362;51.902;7.626;2022-08-25T00:20:07;3.53;;;2.33;;
26774;SDS011;14362;51.902;7.626;2022-08-25T00:24:10;6.07;;;2.15;;
26774;SDS011;14362;51.902;7.626;2022-08-25T00:28:13;3.47;;;2.13;;
26774;SDS011;14362;51.902;7.626;2022-08-25T00:32:15;4.68;;;2.17;;
26774;SDS011;14362;51.902;7.626;2022-08-25T00:36:18;4.07;;;2.35;;
26774;SDS011;14362;51.902;7.626;2022-08-25T00:40:21;3.03;;;2.03;;
26774;SDS011;14362;51.902;7.626;2022-08-25T00:44:26;3.97;;;2.20;;
26774;SDS011;14362;51.902;7.626;2022-08-25T00:48:30;2.90;;;2.38;;
26774;SDS011;14362;51.902;7.626;2022-08-25T00:52:33;4.65;;;2.40;;
26774;SDS011;14362;51.902;7.626;2022-08-25T00:56:37;4.72;;;2.28;;
26774;SDS011;14362;51.902;7.626;2022-08-25T01:00:42;4.38;;;2.30;;
26774;SDS011;14362;51.902;7.626;2022-08-25T01:04:46;2.90;;;2.42;;
26774;SDS011;14362;51.902;7.626;2022-08-25T01:08:47;4.85;;;2.38;;
26774;SDS011;14362;51.902;7.626;2022-08-25T01:12:49;3.85;;;2.67;;
26774;SDS011;14362;51.902;7.626;2022-08-25T01:16:56;3.78;;;2.38;;
26774;SDS011;14362;51.902;7.626;2022-08-25T01:20:59;3.30;;;2.57;;
26774;SDS011;14362;51.902;7.626;2022-08-25T01:25:03;5.05;;;2.42;;
26774;SDS011;14362;51.902;7.626;2022-08-25T01:29:13;4.68;;;2.50;;
26774;SDS011;14362;51.902;7.626;2022-08-25T01:33:25;3.40;;;2.60;;
26774;SDS011;14362;51.902;7.626;2022-08-25T01:37:27;4.15;;;2.33;;
26774;SDS011;14362;51.902;7.626;2022-08-25T01:41:30;3.55;;;2.20;;
26774;SDS011;14362;51.902;7.626;2022-08-25T01:45:41;4.63;;;2.75;;
26774;SDS011;14362;51.902;7.626;2022-08-25T01:53:47;4.40;;;2.20;;
26774;SDS011;14362;51.902;7.626;2022-08-25T01:57:49;4.07;;;2.78;;
26774;SDS011;14362;51.902;7.626;2022-08-25T02:01:51;5.88;;;2.40;;
26774;SDS011;14362;51.902;7.626;2022-08-25T02:05:53;4.20;;;2.42;;
26774;SDS011;14362;51.902;7.626;2022-08-25T02:09:57;3.75;;;2.67;;
26774;SDS011;14362;51.902;7.626;2022-08-25T02:13:58;5.35;;;2.92;;
26774;SDS011;14362;51.902;7.626;2022-08-25T02:18:00;2.95;;;2.15;;
26774;SDS011;14362;51.902;7.626;2022-08-25T02:22:01;3.85;;;2.47;;
26774;SDS011;14362;51.902;7.626;2022-08-25T02:26:05;2.97;;;2.17;;
26774;SDS011;14362;51.902;7.626;2022-08-25T02:30:07;4.47;;;2.55;;
26774;SDS011;14362;51.902;7.626;2022-08-25T02:34:09;2.95;;;2.35;;
26774;SDS011;14362;51.902;7.626;2022-08-25T02:38:11;5.20;;;2.50;;
26774;SDS011;14362;51.902;7.626;2022-08-25T02:42:14;3.28;;;2.47;;
26774;SDS011;14362;51.902;7.626;2022-08-25T02:46:17;2.63;;;2.42;;
26774;SDS011;14362;51.902;7.626;2022-08-25T02:50:20;5.63;;;2.60;;
26774;SDS011;14362;51.902;7.626;2022-08-25T02:54:21;4.00;;;2.60;;
26774;SDS011;14362;51.902;7.626;2022-08-25T02:58:24;5.68;;;2.75;;
26774;SDS011;14362;51.902;7.626;2022-08-25T03:02:25;3.22;;;2.78;;
26774;SDS011;14362;51.902;7.626;2022-08-25T03:06:27;4.57;;;2.47;;
26774;SDS011;14362;51.902;7.626;2022-08-25T03:10:29;3.90;;;2.65;;
26774;SDS011;14362;51.902;7.626;2022-08-25T03:14:32;4.20;;;2.50;;
26774;SDS011;14362;51.902;7.626;2022-08-25T03:18:33;5.20;;;2.85;;
26774;SDS011;14362;51.902;7.626;2022-08-25T03:22:35;3.95;;;2.40;;
26774;SDS011;14362;51.902;7.626;2022-08-25T03:26:37;3.50;;;2.38;;
26774;SDS011;14362;51.902;7.626;2022-08-25T03:30:56;4.13;;;2.58;;
26774;SDS011;14362;51.902;7.626;2022-08-25T03:34:59;5.68;;;3.00;;
26774;SDS011;14362;51.902;7.626;2022-08-25T03:39:02;3.92;;;2.63;;
26774;SDS011;14362;51.902;7.626;2022-08-25T03:43:04;6.25;;;2.95;;
26774;SDS011;14362;51.902;7.626;2022-08-25T03:47:07;3.22;;;2.80;;
26774;SDS011;14362;51.902;7.626;2022-08-25T03:51:08;3.92;;;3.00;;
26774;SDS011;14362;51.902;7.626;2022-08-25T03:55:11;7.20;;;2.65;;
26774;SDS011;14362;51.902;7.626;2022-08-25T03:59:13;5.45;;;3.35;;
26774;SDS011;14362;51.902;7.626;2022-08-25T04:03:17;6.78;;;3.10;;
26774;SDS011;14362;51.902;7.626;2022-08-25T04:07:19;3.47;;;3.03;;
26774;SDS011;14362;51.902;7.626;2022-08-25T04:11:21;6.10;;;3.10;;
26774;SDS011;14362;51.902;7.626;2022-08-25T04:15:23;4.60;;;3.38;;
26774;SDS011;14362;51.902;7.626;2022-08-25T04:19:26;4.20;;;3.03;;
26774;SDS011;14362;51.902;7.626;2022-08-25T04:23:27;4.80;;;3.30;;
26774;SDS011;14362;51.902;7.626;2022-08-25T04:27:29;5.25;;;3.63;;
26774;SDS011;14362;51.902;7.626;2022-08-25T04:31:30;5.47;;;3.00;;
26774;SDS011;14362;51.902;7.626;2022-08-25T04:35:34;4.93;;;3.30;;
26774;SDS011;14362;51.902;7.626;2022-08-25T04:39:35;6.13;;;3.60;;
26774;SDS011;14362;51.902;7.626;2022-08-25T04:43:38;6.00;;;3.50;;
26774;SDS011;14362;51.902;7.626;2022-08-25T04:47:41;6.67;;;3.30;;
26774;SDS011;14362;51.902;7.626;2022-08-25T04:51:43;5.10;;;3.55;;
26774;SDS011;14362;51.902;7.626;2022-08-25T04:55:47;8.73;;;3.30;;
26774;SDS011;14362;51.902;7.626;2022-08-25T04:59:48;5.75;;;3.35;;
26774;SDS011;14362;51.902;7.626;2022-08-25T05:03:52;4.80;;;3.13;;
26774;SDS011;14362;51.902;7.626;2022-08-25T05:07:56;6.15;;;4.25;;
26774;SDS011;14362;51.902;7.626;2022-08-25T05:11:58;4.32;;;3.17;;
26774;SDS011;14362;51.902;7.626;2022-08-25T05:16:00;7.00;;;3.53;;
26774;SDS011;14362;51.902;7.626;2022-08-25T05:20:03;4.90;;;3.92;;
26774;SDS011;14362;51.902;7.626;2022-08-25T05:24:06;5.47;;;3.90;;
26774;SDS011;14362;51.902;7.626;2022-08-25T05:28:08;7.55;;;4.40;;
26774;SDS011;14362;51.902;7.626;2022-08-25T05:32:09;4.63;;;3.88;;
26774;SDS011;14362;51.902;7.626;2022-08-25T05:36:11;6.30;;;3.50;;
26774;SDS011;14362;51.902;7.626;2022-08-25T05:40:15;3.83;;;3.42;;
26774;SDS011;14362;51.902;7.626;2022-08-25T05:44:16;5.35;;;3.83;;
26774;SDS011;14362;51.902;7.626;2022-08-25T05:48:18;6.38;;;4.10;;
26774;SDS011;14362;51.902;7.626;2022-08-25T05:52:19;8.45;;;4.03;;
26774;SDS011;14362;51.902;7.626;2022-08-25T05:56:22;12.98;;;5.72;;
26774;SDS011;14362;51.902;7.626;2022-08-25T06:00:23;6.15;;;4.25;;
26774;SDS011;14362;51.902;7.626;2022-08-25T06:04:25;4.57;;;4.10;;
26774;SDS011;14362;51.902;7.626;2022-08-25T06:08:26;6.82;;;4.38;;
26774;SDS011;14362;51.902;7.626;2022-08-25T06:16:35;10.25;;;4.07;;
26774;SDS011;14362;51.902;7.626;2022-08-25T06:20:37;6.53;;;3.95;;
26774;SDS011;14362;51.902;7.626;2022-08-25T06:24:39;7.50;;;4.03;;
26774;SDS011;14362;51.902;7.626;2022-08-25T06:28:41;12.93;;;5.05;;
26774;SDS011;14362;51.902;7.626;2022-08-25T06:32:43;9.45;;;4.50;;
26774;SDS011;14362;51.902;7.626;2022-08-25T06:36:46;10.00;;;5.05;;
26774;SDS011;14362;51.902;7.626;2022-08-25T06:40:47;7.10;;;4.82;;
26774;SDS011;14362;51.902;7.626;2022-08-25T06:44:52;10.45;;;4.40;;
26774;SDS011;14362;51.902;7.626;2022-08-25T06:48:53;4.90;;;3.97;;
26774;SDS011;14362;51.902;7.626;2022-08-25T06:52:55;9.10;;;4.45;;
26774;SDS011;14362;51.902;7.626;2022-08-25T06:56:57;5.03;;;4.50;;
26774;SDS011;14362;51.902;7.626;2022-08-25T07:01:06;7.63;;;4.10;;
26774;SDS011;14362;51.902;7.626;2022-08-25T07:05:08;5.38;;;4.25;;
26774;SDS011;14362;51.902;7.626;2022-08-25T07:09:10;5.75;;;4.47;;
26774;SDS011;14362;51.902;7.626;2022-08-25T07:13:12;5.03;;;4.53;;
26774;SDS011;14362;51.902;7.626;2022-08-25T07:17:15;5.97;;;4.05;;
26774;SDS011;14362;51.902;7.626;2022-08-25T07:21:18;5.50;;;4.32;;
26774;SDS011;14362;51.902;7.626;2022-08-25T07:25:20;6.13;;;4.18;;
26774;SDS011;14362;51.902;7.626;2022-08-25T07:29:22;6.30;;;4.45;;
26774;SDS011;14362;51.902;7.626;2022-08-25T07:33:27;6.78;;;4.53;;
26774;SDS011;14362;51.902;7.626;2022-08-25T07:37:28;6.50;;;4.60;;
26774;SDS011;14362;51.902;7.626;2022-08-25T07:41:30;6.70;;;4.88;;
26774;SDS011;14362;51.902;7.626;2022-08-25T07:45:33;7.35;;;4.70;;
26774;SDS011;14362;51.902;7.626;2022-08-25T07:49:37;6.03;;;4.55;;
26774;SDS011;14362;51.902;7.626;2022-08-25T07:53:39;8.57;;;4.47;;
26774;SDS011;14362;51.902;7.626;2022-08-25T07:57:41;8.15;;;4.72;;
26774;SDS011;14362;51.902;7.626;2022-08-25T08:01:43;7.72;;;4.13;;
26774;SDS011;14362;51.902;7.626;2022-08-25T08:05:46;6.90;;;4.78;;
26774;SDS011;14362;51.902;7.626;2022-08-25T08:09:48;6.18;;;4.50;;
26774;SDS011;14362;51.902;7.626;2022-08-25T08:13:49;7.30;;;4.32;;
26774;SDS011;14362;51.902;7.626;2022-08-25T08:17:51;7.93;;;4.40;;
26774;SDS011;14362;51.902;7.626;2022-08-25T08:21:53;5.97;;;4.50;;
26774;SDS011;14362;51.902;7.626;2022-08-25T08:25:55;6.68;;;4.93;;
26774;SDS011;14362;51.902;7.626;2022-08-25T08:29:56;8.30;;;5.00;;
26774;SDS011;14362;51.902;7.626;2022-08-25T08:33:58;5.13;;;4.43;;
26774;SDS011;14362;51.902;7.626;2022-08-25T08:38:01;8.90;;;4.95;;
26774;SDS011;14362;51.902;7.626;2022-08-25T08:42:06;8.02;;;4.65;;
26774;SDS011;14362;51.902;7.626;2022-08-25T08:46:17;5.95;;;4.68;;
26774;SDS011;14362;51.902;7.626;2022-08-25T08:50:23;13.13;;;4.80;;
26774;SDS011;14362;51.902;7.626;2022-08-25T08:54:33;8.40;;;4.88;;
26774;SDS011;14362;51.902;7.626;2022-08-25T08:58:39;9.35;;;5.28;;
26774;SDS011;14362;51.902;7.626;2022-08-25T09:02:45;6.50;;;5.10;;
26774;SDS011;14362;51.902;7.626;2022-08-25T09:06:52;5.28;;;4.72;;
26774;SDS011;14362;51.902;7.626;2022-08-25T09:10:59;7.15;;;4.68;;
26774;SDS011;14362;51.902;7.626;2022-08-25T09:15:06;5.22;;;4.10;;
26774;SDS011;14362;51.902;7.626;2022-08-25T09:19:21;5.30;;;4.47;;
26774;SDS011;14362;51.902;7.626;2022-08-25T09:23:49;5.88;;;4.18;;
26774;SDS011;14362;51.902;7.626;2022-08-25T09:28:06;8.23;;;4.88;;
26774;SDS011;14362;51.902;7.626;2022-08-25T09:32:11;7.10;;;4.10;;
26774;SDS011;14362;51.902;7.626;2022-08-25T09:36:14;7.53;;;4.28;;
26774;SDS011;14362;51.902;7.626;2022-08-25T09:40:15;5.82;;;4.20;;
26774;SDS011;14362;51.902;7.626;2022-08-25T09:44:20;5.25;;;4.40;;
26774;SDS011;14362;51.902;7.626;2022-08-25T09:48:24;5.45;;;3.55;;
26774;SDS011;14362;51.902;7.626;2022-08-25T09:52:29;4.43;;;3.72;;
26774;SDS011;14362;51.902;7.626;2022-08-25T09:56:33;5.03;;;3.70;;
26774;SDS011;14362;51.902;7.626;2022-08-25T10:01:01;4.28;;;3.03;;
26774;SDS011;14362;51.902;7.626;2022-08-25T10:05:19;3.78;;;2.70;;
26774;SDS011;14362;51.902;7.626;2022-08-25T10:09:24;4.65;;;3.28;;
26774;SDS011;14362;51.902;7.626;2022-08-25T10:13:34;5.63;;;3.65;;
26774;SDS011;14362;51.902;7.626;2022-08-25T10:17:40;4.70;;;3.00;;
26774;SDS011;14362;51.902;7.626;2022-08-25T10:21:41;3.95;;;3.40;;
26774;SDS011;14362;51.902;7.626;2022-08-25T10:25:44;4.15;;;3.15;;
26774;SDS011;14362;51.902;7.626;2022-08-25T10:29:54;5.78;;;3.00;;
26774;SDS011;14362;51.902;7.626;2022-08-25T10:34:10;6.35;;;3.20;;
26774;SDS011;14362;51.902;7.626;2022-08-25T10:38:26;6.20;;;3.17;;
26774;SDS011;14362;51.902;7.626;2022-08-25T10:46:40;3.70;;;3.38;;
26774;SDS011;14362;51.902;7.626;2022-08-25T10:50:51;6.00;;;3.33;;
26774;SDS011;14362;51.902;7.626;2022-08-25T10:54:57;4.38;;;2.80;;
26774;SDS011;14362;51.902;7.626;2022-08-25T11:03:38;6.78;;;3.60;;
26774;SDS011;14362;51.902;7.626;2022-08-25T11:07:49;3.65;;;2.83;;
26774;SDS011;14362;51.902;7.626;2022-08-25T11:11:55;4.60;;;3.20;;
26774;SDS011;14362;51.902;7.626;2022-08-25T11:16:00;5.57;;;3.45;;
26774;SDS011;14362;51.902;7.626;2022-08-25T11:20:11;5.15;;;3.45;;
26774;SDS011;14362;51.902;7.626;2022-08-25T11:24:28;6.10;;;3.85;;
26774;SDS011;14362;51.902;7.626;2022-08-25T11:28:42;6.20;;;3.95;;
26774;SDS011;14362;51.902;7.626;2022-08-25T11:32:52;4.45;;;3.90;;
26774;SDS011;14362;51.902;7.626;2022-08-25T11:36:55;8.50;;;3.40;;
26774;SDS011;14362;51.902;7.626;2022-08-25T11:41:06;8.60;;;4.20;;
26774;SDS011;14362;51.902;7.626;2022-08-25T11:45:21;5.93;;;3.80;;
26774;SDS011;14362;51.902;7.626;2022-08-25T11:49:50;6.63;;;3.83;;
26774;SDS011;14362;51.902;7.626;2022-08-25T11:54:04;7.85;;;4.10;;
26774;SDS011;14362;51.902;7.626;2022-08-25T11:58:22;6.38;;;4.05;;
26774;SDS011;14362;51.902;7.626;2022-08-25T12:02:41;6.82;;;4.43;;
26774;SDS011;14362;51.902;7.626;2022-08-25T12:11:47;10.05;;;4.22;;
26774;SDS011;14362;51.902;7.626;2022-08-25T12:15:59;5.47;;;3.88;;
26774;SDS011;14362;51.902;7.626;2022-08-25T12:20:01;5.07;;;4.50;;
26774;SDS011;14362;51.902;7.626;2022-08-25T12:24:10;6.30;;;4.05;;
26774;SDS011;14362;51.902;7.626;2022-08-25T12:28:22;4.40;;;3.75;;
26774;SDS011;14362;51.902;7.626;2022-08-25T12:32:39;5.05;;;4.40;;
26774;SDS011;14362;51.902;7.626;2022-08-25T12:37:03;4.38;;;3.70;;
26774;SDS011;14362;51.902;7.626;2022-08-25T12:41:12;5.47;;;4.07;;
26774;SDS011;14362;51.902;7.626;2022-08-25T12:45:37;4.53;;;4.13;;
26774;SDS011;14362;51.902;7.626;2022-08-25T12:49:42;7.15;;;4.32;;
26774;SDS011;14362;51.902;7.626;2022-08-25T12:53:45;5.20;;;4.03;;
26774;SDS011;14362;51.902;7.626;2022-08-25T12:57:51;4.75;;;4.25;;
26774;SDS011;14362;51.902;7.626;2022-08-25T13:02:00;5.90;;;4.50;;
26774;SDS011;14362;51.902;7.626;2022-08-25T13:06:33;4.83;;;3.80;;
26774;SDS011;14362;51.902;7.626;2022-08-25T13:10:44;5.53;;;4.47;;
26774;SDS011;14362;51.902;7.626;2022-08-25T13:14:51;6.07;;;4.47;;
26774;SDS011;14362;51.902;7.626;2022-08-25T13:18:55;8.35;;;4.70;;
26774;SDS011;14362;51.902;7.626;2022-08-25T13:22:59;5.68;;;4.53;;
26774;SDS011;14362;51.902;7.626;2022-08-25T13:27:02;6.63;;;4.40;;
26774;SDS011;14362;51.902;7.626;2022-08-25T13:31:07;6.97;;;4.78;;
26774;SDS011;14362;51.902;7.626;2022-08-25T13:35:16;4.85;;;4.28;;
26774;SDS011;14362;51.902;7.626;2022-08-25T13:39:21;9.77;;;4.25;;
26774;SDS011;14362;51.902;7.626;2022-08-25T13:43:24;4.70;;;4.30;;
26774;SDS011;14362;51.902;7.626;2022-08-25T13:47:32;4.80;;;4.38;;
26774;SDS011;14362;51.902;7.626;2022-08-25T13:51:35;7.15;;;4.50;;
26774;SDS011;14362;51.902;7.626;2022-08-25T13:55:47;6.88;;;4.63;;
26774;SDS011;14362;51.902;7.626;2022-08-25T13:59:52;7.80;;;4.20;;
26774;SDS011;14362;51.902;7.626;2022-08-25T14:03:56;4.68;;;4.20;;
26774;SDS011;14362;51.902;7.626;2022-08-25T14:08:29;6.83;;;4.37;;
26774;SDS011;14362;51.902;7.626;2022-08-25T14:12:37;4.28;;;3.88;;
26774;SDS011;14362;51.902;7.626;2022-08-25T14:16:45;6.43;;;4.13;;
26774;SDS011;14362;51.902;7.626;2022-08-25T14:20:50;7.32;;;4.63;;
26774;SDS011;14362;51.902;7.626;2022-08-25T14:24:55;5.40;;;4.90;;
26774;SDS011;14362;51.902;7.626;2022-08-25T14:28:57;6.22;;;4.47;;
26774;SDS011;14362;51.902;7.626;2022-08-25T14:32:58;6.90;;;4.07;;
26774;SDS011;14362;51.902;7.626;2022-08-25T14:37:04;5.47;;;4.25;;
26774;SDS011;14362;51.902;7.626;2022-08-25T14:41:07;8.25;;;4.93;;
26774;SDS011;14362;51.902;7.626;2022-08-25T14:45:09;5.03;;;4.50;;
26774;SDS011;14362;51.902;7.626;2022-08-25T14:49:11;6.63;;;4.15;;
26774;SDS011;14362;51.902;7.626;2022-08-25T14:53:17;8.10;;;4.95;;
26774;SDS011;14362;51.902;7.626;2022-08-25T14:57:20;5.47;;;4.45;;
26774;SDS011;14362;51.902;7.626;2022-08-25T15:01:22;4.63;;;3.90;;
26774;SDS011;14362;51.902;7.626;2022-08-25T15:05:24;7.22;;;4.63;;
26774;SDS011;14362;51.902;7.626;2022-08-25T15:13:30;6.47;;;4.72;;
26774;SDS011;14362;51.902;7.626;2022-08-25T15:17:32;6.13;;;4.28;;
26774;SDS011;14362;51.902;7.626;2022-08-25T15:21:34;6.57;;;4.25;;
26774;SDS011;14362;51.902;7.626;2022-08-25T15:25:38;9.13;;;4.35;;
26774;SDS011;14362;51.902;7.626;2022-08-25T15:29:43;4.50;;;4.10;;
26774;SDS011;14362;51.902;7.626;2022-08-25T15:33:45;6.32;;;4.53;;
26774;SDS011;14362;51.902;7.626;2022-08-25T15:37:46;5.30;;;4.65;;
26774;SDS011;14362;51.902;7.626;2022-08-25T15:41:48;9.02;;;4.40;;
26774;SDS011;14362;51.902;7.626;2022-08-25T15:45:52;4.80;;;4.38;;
26774;SDS011;14362;51.902;7.626;2022-08-25T15:50:02;5.95;;;4.22;;
26774;SDS011;14362;51.902;7.626;2022-08-25T15:54:06;6.28;;;4.43;;
26774;SDS011;14362;51.902;7.626;2022-08-25T15:58:07;6.32;;;3.97;;
26774;SDS011;14362;51.902;7.626;2022-08-25T16:02:10;7.57;;;4.47;;
26774;SDS011;14362;51.902;7.626;2022-08-25T16:06:11;4.30;;;3.90;;
26774;SDS011;14362;51.902;7.626;2022-08-25T16:10:13;5.68;;;4.20;;
26774;SDS011;14362;51.902;7.626;2022-08-25T16:14:14;5.47;;;4.15;;
26774;SDS011;14362;51.902;7.626;2022-08-25T16:18:17;5.85;;;4.10;;
26774;SDS011;14362;51.902;7.626;2022-08-25T16:22:19;7.00;;;4.43;;
26774;SDS011;14362;51.902;7.626;2022-08-25T16:26:20;6.55;;;4.10;;
26774;SDS011;14362;51.902;7.626;2022-08-25T16:30:22;7.47;;;4.40;;
26774;SDS011;14362;51.902;7.626;2022-08-25T16:34:25;5.68;;;4.28;;
26774;SDS011;14362;51.902;7.626;2022-08-25T16:38:26;8.73;;;4.55;;
26774;SDS011;14362;51.902;7.626;2022-08-25T16:42:28;4.97;;;4.47;;
26774;SDS011;14362;51.902;7.626;2022-08-25T16:46:29;5.05;;;4.28;;
26774;SDS011;14362;51.902;7.626;2022-08-25T16:50:32;6.57;;;4.00;;
26774;SDS011;14362;51.902;7.626;2022-08-25T16:54:34;5.37;;;4.27;;
26774;SDS011;14362;51.902;7.626;2022-08-25T16:58:53;5.90;;;3.78;;
26774;SDS011;14362;51.902;7.626;2022-08-25T17:02:56;9.40;;;4.10;;
26774;SDS011;14362;51.902;7.626;2022-08-25T17:07:00;7.75;;;4.90;;
26774;SDS011;14362;51.902;7.626;2022-08-25T17:11:02;4.80;;;4.30;;
26774;SDS011;14362;51.902;7.626;2022-08-25T17:15:05;5.93;;;4.72;;
26774;SDS011;14362;51.902;7.626;2022-08-25T17:19:07;5.60;;;4.15;;
26774;SDS011;14362;51.902;7.626;2022-08-25T17:23:13;5.15;;;4.60;;
26774;SDS011;14362;51.902;7.626;2022-08-25T17:27:14;7.47;;;4.18;;
26774;SDS011;14362;51.902;7.626;2022-08-25T17:31:17;6.17;;;4.77;;
26774;SDS011;14362;51.902;7.626;2022-08-25T17:35:19;8.07;;;4.85;;
26774;SDS011;14362;51.902;7.626;2022-08-25T17:39:23;6.82;;;4.22;;
26774;SDS011;14362;51.902;7.626;2022-08-25T17:43:26;6.07;;;4.80;;
26774;SDS011;14362;51.902;7.626;2022-08-25T17:47:28;6.57;;;4.53;;
26774;SDS011;14362;51.902;7.626;2022-08-25T17:51:30;6.00;;;4.07;;
26774;SDS011;14362;51.902;7.626;2022-08-25T17:55:33;4.88;;;4.05;;
26774;SDS011;14362;51.902;7.626;2022-08-25T17:59:35;6.78;;;4.65;;
26774;SDS011;14362;51.902;7.626;2022-08-25T18:03:37;4.20;;;3.80;;
26774;SDS011;14362;51.902;7.626;2022-08-25T18:07:39;4.78;;;4.38;;
26774;SDS011;14362;51.902;7.626;2022-08-25T18:11:42;5.95;;;4.10;;
26774;SDS011;14362;51.902;7.626;2022-08-25T18:15:44;6.20;;;4.10;;
26774;SDS011;14362;51.902;7.626;2022-08-25T18:19:45;5.15;;;4.63;;
26774;SDS011;14362;51.902;7.626;2022-08-25T18:23:47;5.50;;;4.53;;
26774;SDS011;14362;51.902;7.626;2022-08-25T18:27:51;5.20;;;4.15;;
26774;SDS011;14362;51.902;7.626;2022-08-25T18:31:53;9.15;;;4.63;;
26774;SDS011;14362;51.902;7.626;2022-08-25T18:35:54;5.15;;;4.68;;
26774;SDS011;14362;51.902;7.626;2022-08-25T18:39:56;7.95;;;4.97;;
26774;SDS011;14362;51.902;7.626;2022-08-25T18:44:16;7.90;;;4.85;;
26774;SDS011;14362;51.902;7.626;2022-08-25T18:48:18;5.25;;;4.75;;
26774;SDS011;14362;51.902;7.626;2022-08-25T18:52:22;6.80;;;4.65;;
26774;SDS011;14362;51.902;7.626;2022-08-25T18:56:24;6.43;;;5.00;;
26774;SDS011;14362;51.902;7.626;2022-08-25T19:00:27;7.50;;;4.93;;
26774;SDS011;14362;51.902;7.626;2022-08-25T19:04:30;6.68;;;4.93;;
26774;SDS011;14362;51.902;7.626;2022-08-25T19:08:32;6.20;;;4.88;;
26774;SDS011;14362;51.902;7.626;2022-08-25T19:12:34;5.85;;;5.05;;
26774;SDS011;14362;51.902;7.626;2022-08-25T19:16:37;6.75;;;5.25;;
26774;SDS011;14362;51.902;7.626;2022-08-25T19:20:42;8.48;;;5.10;;
26774;SDS011;14362;51.902;7.626;2022-08-25T19:24:44;6.10;;;5.50;;
26774;SDS011;14362;51.902;7.626;2022-08-25T19:28:46;7.72;;;4.97;;
26774;SDS011;14362;51.902;7.626;2022-08-25T19:32:50;6.28;;;5.50;;
26774;SDS011;14362;51.902;7.626;2022-08-25T19:36:51;9.33;;;5.67;;
26774;SDS011;14362;51.902;7.626;2022-08-25T19:40:53;8.75;;;5.82;;
26774;SDS011;14362;51.902;7.626;2022-08-25T19:44:55;8.98;;;5.15;;
26774;SDS011;14362;51.902;7.626;2022-08-25T19:48:59;9.15;;;5.45;;
26774;SDS011;14362;51.902;7.626;2022-08-25T19:53:02;9.43;;;5.45;;
26774;SDS011;14362;51.902;7.626;2022-08-25T19:57:04;6.43;;;5.85;;
26774;SDS011;14362;51.902;7.626;2022-08-25T20:01:07;6.93;;;5.20;;
26774;SDS011;14362;51.902;7.626;2022-08-25T20:05:10;8.05;;;5.00;;
26774;SDS011;14362;51.902;7.626;2022-08-25T20:09:12;8.33;;;5.60;;
26774;SDS011;14362;51.902;7.626;2022-08-25T20:13:13;8.68;;;5.32;;
26774;SDS011;14362;51.902;7.626;2022-08-25T20:17:15;9.70;;;5.25;;
26774;SDS011;14362;51.902;7.626;2022-08-25T20:21:19;7.25;;;5.45;;
26774;SDS011;14362;51.902;7.626;2022-08-25T20:25:22;10.60;;;5.60;;
26774;SDS011;14362;51.902;7.626;2022-08-25T20:29:25;9.07;;;5.60;;
26774;SDS011;14362;51.902;7.626;2022-08-25T20:33:28;6.20;;;5.60;;
26774;SDS011;14362;51.902;7.626;2022-08-25T20:37:31;6.40;;;5.18;;
26774;SDS011;14362;51.902;7.626;2022-08-25T20:41:33;6.38;;;5.47;;
26774;SDS011;14362;51.902;7.626;2022-08-25T20:45:34;6.72;;;5.57;;
26774;SDS011;14362;51.902;7.626;2022-08-25T20:49:36;5.72;;;5.20;;
26774;SDS011;14362;51.902;7.626;2022-08-25T20:53:40;7.20;;;4.80;;
26774;SDS011;14362;51.902;7.626;2022-08-25T21:01:44;7.88;;;6.10;;
26774;SDS011;14362;51.902;7.626;2022-08-25T21:05:47;5.95;;;5.38;;
26774;SDS011;14362;51.902;7.626;2022-08-25T21:09:50;7.82;;;5.97;;
26774;SDS011;14362;51.902;7.626;2022-08-25T21:13:52;9.15;;;5.88;;
26774;SDS011;14362;51.902;7.626;2022-08-25T21:17:55;5.90;;;5.30;;
26774;SDS011;14362;51.902;7.626;2022-08-25T21:21:57;7.40;;;5.50;;
26774;SDS011;14362;51.902;7.626;2022-08-25T21:26:00;8.57;;;6.18;;
26774;SDS011;14362;51.902;7.626;2022-08-25T21:30:02;10.90;;;5.72;;
26774;SDS011;14362;51.902;7.626;2022-08-25T21:34:04;9.15;;;6.22;;
26774;SDS011;14362;51.902;7.626;2022-08-25T21:38:06;8.38;;;5.65;;
26774;SDS011;14362;51.902;7.626;2022-08-25T21:42:09;9.80;;;6.38;;
26774;SDS011;14362;51.902;7.626;2022-08-25T21:46:11;9.03;;;6.00;;
26774;SDS011;14362;51.902;7.626;2022-08-25T21:54:16;12.50;;;5.72;;
26774;SDS011;14362;51.902;7.626;2022-08-25T21:58:19;7.68;;;5.43;;
26774;SDS011;14362;51.902;7.626;2022-08-25T22:02:20;9.30;;;6.07;;
26774;SDS011;14362;51.902;7.626;2022-08-25T22:06:22;7.40;;;5.70;;
26774;SDS011;14362;51.902;7.626;2022-08-25T22:10:24;6.75;;;5.75;;
26774;SDS011;14362;51.902;7.626;2022-08-25T22:14:27;9.55;;;5.93;;
26774;SDS011;14362;51.902;7.626;2022-08-25T22:18:29;9.80;;;6.63;;
26774;SDS011;14362;51.902;7.626;2022-08-25T22:22:30;10.07;;;5.88;;
26774;SDS011;14362;51.902;7.626;2022-08-25T22:26:32;8.25;;;6.22;;
26774;SDS011;14362;51.902;7.626;2022-08-25T22:30:36;11.00;;;6.60;;
26774;SDS011;14362;51.902;7.626;2022-08-25T22:34:38;7.60;;;6.18;;
26774;SDS011;14362;51.902;7.626;2022-08-25T22:38:39;11.25;;;6.03;;
26774;SDS011;14362;51.902;7.626;2022-08-25T22:42:41;7.28;;;5.90;;
26774;SDS011;14362;51.902;7.626;2022-08-25T22:46:44;8.38;;;6.15;;
26774;SDS011;14362;51.902;7.626;2022-08-25T22:50:45;9.43;;;6.18;;
26774;SDS011;14362;51.902;7.626;2022-08-25T22:54:47;9.13;;;5.95;;
26774;SDS011;14362;51.902;7.626;2022-08-25T22:58:48;8.57;;;6.18;;
26774;SDS011;14362;51.902;7.626;2022-08-25T23:02:51;6.97;;;5.80;;
26774;SDS011;14362;51.902;7.626;2022-08-25T23:06:52;10.77;;;6.35;;
26774;SDS011;14362;51.902;7.626;2022-08-25T23:10:54;9.77;;;6.38;;
26774;SDS011;14362;51.902;7.626;2022-08-25T23:14:56;8.73;;;5.82;;
26774;SDS011;14362;51.902;7.626;2022-08-25T23:18:59;10.55;;;6.35;;
26774;SDS011;14362;51.902;7.626;2022-08-25T23:23:01;13.27;;;6.47;;
26774;SDS011;14362;51.902;7.626;2022-08-25T23:27:03;9.57;;;6.93;;
26774;SDS011;14362;51.902;7.626;2022-08-25T23:31:07;10.75;;;6.63;;
26774;SDS011;14362;51.902;7.626;2022-08-25T23:35:10;8.13;;;6.53;;
26774;SDS011;14362;51.902;7.626;2022-08-25T23:39:12;10.63;;;7.10;;
26774;SDS011;14362;51.902;7.626;2022-08-25T23:43:14;9.10;;;6.47;;
26774;SDS011;14362;51.902;7.626;2022-08-25T23:47:16;9.10;;;6.15;;
26774;SDS011;14362;51.902;7.626;2022-08-25T23:51:25;7.78;;;6.68;;
26774;SDS011;14362;51.902;7.626;2022-08-25T23:55:28;9.43;;;6.82;;
26774;SDS011;14362;51.902;7.626;2022-08-25T23:59:29;7.82;;;6.80;;
